Zhongxiang, China
Current Conditions -  °F | °C
As of 2:00 AM on Thursday 29 Jan 2015 (Local Time) from ZHHH Reporting Station
Light Snow Light Snow  
Wind Chill: 28°   Ceiling: 3300
Heat Index: 32°   Visibility: 4mi
Dew Point: 28°   Wind: 4mph
Humidity: 87%   Direction: 20°NNE
Pressure: 30.36"   Gusts: NA
Location:  31.17°N, 112.57°E
Report Text: ZHHH 281800Z 02002MPS 350V070 7000 -RASN SCT007OVC033M00/M02 Q1028 NOSIG
Loading
Personal Weather Stations






























Interactive Weather Map New forecast layout! Learn more

10-Day Weather Forecast

Advertisements
Track Severe Weather on mobile